createdAt,value
2016-12-07T00:00:31.018Z,1023.05
2016-12-07T00:01:31.162Z,1023.03
2016-12-07T00:02:30.936Z,1023.06
2016-12-07T00:03:31.120Z,1023.01
2016-12-07T00:04:31.054Z,1022.98
2016-12-07T00:05:31.128Z,1023.03
2016-12-07T00:06:31.223Z,1023.01
2016-12-07T00:07:30.963Z,1022.98
2016-12-07T00:08:30.951Z,1023.01
2016-12-07T00:09:31.119Z,1023
2016-12-07T00:10:31.114Z,1022.95
2016-12-07T00:11:31.166Z,1022.98
2016-12-07T00:12:31.265Z,1022.9
2016-12-07T00:13:31.474Z,1022.93
2016-12-07T00:14:31.175Z,1022.92
2016-12-07T00:15:31.023Z,1022.95
2016-12-07T00:16:31.208Z,1022.9
2016-12-07T00:17:31.256Z,1022.91
2016-12-07T00:18:31.195Z,1022.9
2016-12-07T00:19:31.201Z,1022.87
2016-12-07T00:20:31.230Z,1022.9
2016-12-07T00:21:31.198Z,1022.92
2016-12-07T00:22:31.363Z,1022.85
2016-12-07T00:23:31.313Z,1022.83
2016-12-07T00:24:31.241Z,1022.82
2016-12-07T00:25:31.313Z,1022.83
2016-12-07T00:26:31.291Z,1022.86
2016-12-07T00:27:31.280Z,1022.85
2016-12-07T00:28:31.279Z,1022.93
2016-12-07T00:29:31.176Z,1022.93
2016-12-07T00:30:31.276Z,1022.98
2016-12-07T00:31:31.263Z,1022.98
2016-12-07T00:32:31.312Z,1023
2016-12-07T00:33:31.257Z,1023
2016-12-07T00:34:31.237Z,1023.01
2016-12-07T00:35:31.295Z,1023.04
2016-12-07T00:36:31.454Z,1023.05
2016-12-07T00:37:31.391Z,1023.05
2016-12-07T00:38:31.385Z,1023.06
2016-12-07T00:39:31.260Z,1023.02
2016-12-07T00:40:31.325Z,1023.06
2016-12-07T00:41:31.423Z,1023.07
2016-12-07T00:42:31.374Z,1023.04
2016-12-07T00:43:31.415Z,1023.09
2016-12-07T00:44:31.494Z,1023.05
2016-12-07T00:45:31.450Z,1023.06
2016-12-07T00:46:31.549Z,1023.02
2016-12-07T00:47:31.502Z,1023.01
2016-12-07T00:48:31.688Z,1022.99
2016-12-07T00:49:31.592Z,1022.94
2016-12-07T00:50:31.545Z,1022.93
2016-12-07T00:51:31.835Z,1022.92
2016-12-07T00:52:31.888Z,1022.94
2016-12-07T00:53:31.524Z,1022.95
2016-12-07T00:54:31.487Z,1022.95
2016-12-07T00:55:31.793Z,1022.96
2016-12-07T00:56:31.586Z,1022.97
2016-12-07T00:57:31.580Z,1023.01
2016-12-07T00:58:31.818Z,1023.01
2016-12-07T00:59:31.863Z,1022.98
2016-12-07T01:00:31.498Z,1022.99
2016-12-07T01:01:31.626Z,1023
2016-12-07T01:02:31.600Z,1022.96
2016-12-07T01:03:31.571Z,1023.05
2016-12-07T01:04:32.097Z,1023.07
2016-12-07T01:05:31.586Z,1023.02
2016-12-07T01:06:31.845Z,1023.05
2016-12-07T01:07:31.621Z,1023.03
2016-12-07T01:08:31.723Z,1022.97
2016-12-07T01:09:31.769Z,1022.93
2016-12-07T01:10:31.810Z,1022.89
2016-12-07T01:11:31.885Z,1022.89
2016-12-07T01:12:31.797Z,1022.88
2016-12-07T01:13:31.702Z,1022.93
2016-12-07T01:14:31.714Z,1022.91
2016-12-07T01:15:31.859Z,1022.9
2016-12-07T01:16:31.863Z,1022.9
2016-12-07T01:17:32.063Z,1022.9
2016-12-07T01:18:31.966Z,1022.92
2016-12-07T01:19:31.755Z,1022.86
2016-12-07T01:20:31.979Z,1022.87
2016-12-07T01:21:31.891Z,1022.94
2016-12-07T01:22:31.818Z,1022.9
2016-12-07T01:23:31.880Z,1022.95
2016-12-07T01:24:31.979Z,1022.96
2016-12-07T01:25:32.260Z,1022.99
2016-12-07T01:26:31.812Z,1023.03
2016-12-07T01:27:31.960Z,1023.03
2016-12-07T01:28:31.875Z,1023.06
2016-12-07T01:29:31.936Z,1023.12
2016-12-07T01:30:32.049Z,1023.12
2016-12-07T01:31:32.040Z,1023.13
2016-12-07T01:32:32.096Z,1023.12
2016-12-07T01:33:32.038Z,1023.1
2016-12-07T01:34:32.047Z,1023.14
2016-12-07T01:35:32.106Z,1023.12
2016-12-07T01:36:32.059Z,1023.14
2016-12-07T01:37:32.077Z,1023.09
2016-12-07T01:38:32.007Z,1023.05
2016-12-07T01:39:32.215Z,1023.04
2016-12-07T01:40:32.018Z,1023.03
2016-12-07T01:41:32.180Z,1023.02
2016-12-07T01:42:32.141Z,1023.03
2016-12-07T01:43:32.163Z,1023.02
2016-12-07T01:44:32.666Z,1023.03
2016-12-07T01:45:32.020Z,1023.02
2016-12-07T01:46:32.026Z,1023.01
2016-12-07T01:47:32.087Z,1023.01
2016-12-07T01:48:32.041Z,1023.03
2016-12-07T01:49:32.245Z,1023.03
2016-12-07T01:50:32.030Z,1023.02
2016-12-07T01:51:32.266Z,1023.03
2016-12-07T01:52:32.172Z,1022.98
2016-12-07T01:53:32.829Z,1023.01
2016-12-07T01:54:32.209Z,1022.97
2016-12-07T01:55:32.127Z,1022.97
2016-12-07T01:56:32.553Z,1023.02
2016-12-07T01:57:32.233Z,1022.98
2016-12-07T01:58:32.210Z,1022.98
2016-12-07T01:59:32.679Z,1023
2016-12-07T02:00:32.539Z,1023.03
2016-12-07T02:01:32.386Z,1023.03
2016-12-07T02:02:32.509Z,1023
2016-12-07T02:03:32.299Z,1022.98
2016-12-07T02:04:32.450Z,1022.96
2016-12-07T02:05:32.396Z,1023.02
2016-12-07T02:06:32.288Z,1023.01
2016-12-07T02:07:32.279Z,1023
2016-12-07T02:08:32.295Z,1022.98
2016-12-07T02:09:32.248Z,1023.02
2016-12-07T02:10:32.259Z,1023.04
2016-12-07T02:11:32.471Z,1022.99
2016-12-07T02:12:32.447Z,1023.01
2016-12-07T02:13:32.388Z,1023.02
2016-12-07T02:14:32.285Z,1022.99
2016-12-07T02:15:32.459Z,1022.96
2016-12-07T02:16:32.505Z,1023
2016-12-07T02:17:32.768Z,1022.94
2016-12-07T02:18:33.210Z,1022.93
2016-12-07T02:19:32.510Z,1022.98
2016-12-07T02:20:32.536Z,1022.98
2016-12-07T02:21:32.952Z,1022.94
2016-12-07T02:22:32.636Z,1022.99
2016-12-07T02:23:32.511Z,1022.99
2016-12-07T02:24:32.612Z,1023.05
2016-12-07T02:25:32.710Z,1023.05
2016-12-07T02:26:32.991Z,1023.04
2016-12-07T02:27:32.752Z,1022.99
2016-12-07T02:28:32.831Z,1022.98
2016-12-07T02:29:32.790Z,1022.92
2016-12-07T02:30:32.849Z,1022.95
2016-12-07T02:31:32.833Z,1022.92
2016-12-07T02:32:32.963Z,1022.84
2016-12-07T02:33:32.993Z,1022.91
2016-12-07T02:34:32.601Z,1022.88
2016-12-07T02:35:32.670Z,1022.88
2016-12-07T02:36:32.672Z,1022.84
2016-12-07T02:37:32.648Z,1022.79
2016-12-07T02:38:32.613Z,1022.71
2016-12-07T02:39:32.765Z,1022.69
2016-12-07T02:40:32.559Z,1022.71
2016-12-07T02:41:32.922Z,1022.71
2016-12-07T02:42:32.735Z,1022.72
2016-12-07T02:43:32.750Z,1022.75
2016-12-07T02:44:32.662Z,1022.74
2016-12-07T02:45:32.850Z,1022.75
2016-12-07T02:46:33.052Z,1022.77
2016-12-07T02:47:32.870Z,1022.73
2016-12-07T02:48:32.853Z,1022.75
2016-12-07T02:49:32.983Z,1022.73
2016-12-07T02:50:32.823Z,1022.73
2016-12-07T02:51:32.926Z,1022.74
2016-12-07T02:52:32.977Z,1022.76
2016-12-07T02:53:32.750Z,1022.76
2016-12-07T02:54:32.892Z,1022.71
2016-12-07T02:55:32.809Z,1022.73
2016-12-07T02:56:32.787Z,1022.7
2016-12-07T02:57:32.873Z,1022.78
2016-12-07T02:58:32.846Z,1022.77
2016-12-07T02:59:33.058Z,1022.78
2016-12-07T03:00:32.943Z,1022.81
2016-12-07T03:01:32.918Z,1022.81
2016-12-07T03:02:32.861Z,1022.83
2016-12-07T03:03:32.882Z,1022.85
2016-12-07T03:04:32.921Z,1022.85
2016-12-07T03:05:32.979Z,1022.84
2016-12-07T03:06:32.841Z,1022.91
2016-12-07T03:07:32.982Z,1022.92
2016-12-07T03:08:32.917Z,1022.89
2016-12-07T03:09:33.056Z,1022.94
2016-12-07T03:10:33.016Z,1022.95
2016-12-07T03:11:33.172Z,1022.93
2016-12-07T03:12:33.019Z,1022.91
2016-12-07T03:13:33.021Z,1022.93
2016-12-07T03:14:33.022Z,1022.91
2016-12-07T03:15:33.396Z,1022.91
2016-12-07T03:16:33.122Z,1022.92
2016-12-07T03:17:33.113Z,1022.95
2016-12-07T03:18:33.011Z,1022.91
2016-12-07T03:19:33.105Z,1022.91
2016-12-07T03:20:33.143Z,1022.92
2016-12-07T03:21:33.234Z,1022.91
2016-12-07T03:22:33.213Z,1022.93
2016-12-07T03:23:33.316Z,1022.9
2016-12-07T03:24:33.095Z,1022.9
2016-12-07T03:25:33.131Z,1022.89
2016-12-07T03:26:33.303Z,1022.81
2016-12-07T03:27:33.108Z,1022.83
2016-12-07T03:28:33.076Z,1022.8
2016-12-07T03:29:33.297Z,1022.81
2016-12-07T03:30:33.099Z,1022.77
2016-12-07T03:31:33.214Z,1022.76
2016-12-07T03:32:33.231Z,1022.74
2016-12-07T03:33:33.383Z,1022.74
2016-12-07T03:34:33.443Z,1022.71
2016-12-07T03:35:33.471Z,1022.72
2016-12-07T03:36:33.360Z,1022.72
2016-12-07T03:37:33.840Z,1022.73
2016-12-07T03:38:33.349Z,1022.7
2016-12-07T03:39:33.455Z,1022.68
2016-12-07T03:40:33.664Z,1022.65
2016-12-07T03:41:33.328Z,1022.65
2016-12-07T03:42:33.487Z,1022.61
2016-12-07T03:43:33.465Z,1022.63
2016-12-07T03:44:33.397Z,1022.56
2016-12-07T03:45:33.702Z,1022.58
2016-12-07T03:46:33.390Z,1022.51
2016-12-07T03:47:33.325Z,1022.51
2016-12-07T03:48:33.419Z,1022.54
2016-12-07T03:49:33.575Z,1022.52
2016-12-07T03:50:33.710Z,1022.47
2016-12-07T03:51:33.360Z,1022.4
2016-12-07T03:52:33.379Z,1022.38
2016-12-07T03:53:33.453Z,1022.33
2016-12-07T03:54:33.638Z,1022.32
2016-12-07T03:55:33.577Z,1022.29
2016-12-07T03:56:33.535Z,1022.3
2016-12-07T03:57:33.679Z,1022.28
2016-12-07T03:58:33.634Z,1022.27
2016-12-07T03:59:33.615Z,1022.33
2016-12-07T04:00:33.717Z,1022.31
2016-12-07T04:01:33.529Z,1022.3
2016-12-07T04:02:33.574Z,1022.32
2016-12-07T04:03:33.680Z,1022.31
2016-12-07T04:04:33.616Z,1022.29
2016-12-07T04:05:33.547Z,1022.28
2016-12-07T04:06:33.589Z,1022.32
2016-12-07T04:07:33.733Z,1022.34
2016-12-07T04:08:33.635Z,1022.29
2016-12-07T04:09:33.586Z,1022.34
2016-12-07T04:10:33.702Z,1022.3
2016-12-07T04:11:33.576Z,1022.3
2016-12-07T04:12:33.724Z,1022.34
2016-12-07T04:13:33.677Z,1022.32
2016-12-07T04:14:33.837Z,1022.38
2016-12-07T04:15:33.646Z,1022.37
2016-12-07T04:16:33.726Z,1022.36
2016-12-07T04:17:33.837Z,1022.38
2016-12-07T04:18:33.656Z,1022.34
2016-12-07T04:19:33.816Z,1022.33
2016-12-07T04:20:33.775Z,1022.29
2016-12-07T04:21:33.752Z,1022.29
2016-12-07T04:22:33.974Z,1022.26
2016-12-07T04:23:33.852Z,1022.28
2016-12-07T04:24:33.940Z,1022.29
2016-12-07T04:25:33.936Z,1022.23
2016-12-07T04:26:33.803Z,1022.27
2016-12-07T04:27:33.974Z,1022.25
2016-12-07T04:28:33.817Z,1022.24
2016-12-07T04:29:33.746Z,1022.28
2016-12-07T04:30:33.987Z,1022.27
2016-12-07T04:31:33.779Z,1022.25
2016-12-07T04:32:33.902Z,1022.25
2016-12-07T04:33:33.889Z,1022.22
2016-12-07T04:34:34.131Z,1022.2
2016-12-07T04:35:33.900Z,1022.21
2016-12-07T04:36:33.877Z,1022.23
2016-12-07T04:37:33.927Z,1022.16
2016-12-07T04:38:33.851Z,1022.21
2016-12-07T04:39:34.050Z,1022.18
2016-12-07T04:40:34.210Z,1022.22
2016-12-07T04:41:33.894Z,1022.25
2016-12-07T04:42:33.884Z,1022.21
2016-12-07T04:43:34.045Z,1022.22
2016-12-07T04:44:34.377Z,1022.23
2016-12-07T04:45:33.956Z,1022.23
2016-12-07T04:46:34.554Z,1022.22
2016-12-07T04:47:34.113Z,1022.22
2016-12-07T04:48:34.063Z,1022.2
2016-12-07T04:49:34.554Z,1022.21
2016-12-07T04:50:34.450Z,1022.16
2016-12-07T04:51:34.139Z,1022.16
2016-12-07T04:52:34.083Z,1022.16
2016-12-07T04:53:34.166Z,1022.14
2016-12-07T04:54:34.112Z,1022.14
2016-12-07T04:55:34.263Z,1022.17
2016-12-07T04:56:34.566Z,1022.14
2016-12-07T04:57:34.255Z,1022.1
2016-12-07T04:58:34.099Z,1022.07
2016-12-07T04:59:34.471Z,1022.03
2016-12-07T05:00:34.219Z,1022.01
2016-12-07T05:01:34.128Z,1022.02
2016-12-07T05:02:34.163Z,1022
2016-12-07T05:03:34.230Z,1021.97
2016-12-07T05:04:34.214Z,1022
2016-12-07T05:05:34.414Z,1021.96
2016-12-07T05:06:34.253Z,1021.98
2016-12-07T05:07:34.168Z,1022.01
2016-12-07T05:08:34.625Z,1021.99
2016-12-07T05:09:34.706Z,1021.98
2016-12-07T05:10:34.560Z,1022
2016-12-07T05:11:34.427Z,1022
2016-12-07T05:12:34.699Z,1021.96
2016-12-07T05:13:34.325Z,1021.96
2016-12-07T05:14:34.502Z,1022
2016-12-07T05:15:34.499Z,1021.98
2016-12-07T05:16:34.560Z,1021.94
2016-12-07T05:17:34.575Z,1021.95
2016-12-07T05:18:34.710Z,1021.92
2016-12-07T05:19:34.383Z,1021.94
2016-12-07T05:20:34.477Z,1021.88
2016-12-07T05:21:34.449Z,1021.93
2016-12-07T05:22:34.967Z,1021.95
2016-12-07T05:23:34.444Z,1021.97
2016-12-07T05:24:34.597Z,1021.93
2016-12-07T05:25:34.912Z,1021.91
2016-12-07T05:26:34.607Z,1021.94
2016-12-07T05:27:34.794Z,1021.91
2016-12-07T05:28:34.621Z,1021.91
2016-12-07T05:29:34.679Z,1021.99
2016-12-07T05:30:34.662Z,1021.97
2016-12-07T05:31:34.643Z,1021.99
2016-12-07T05:32:34.554Z,1021.98
2016-12-07T05:33:34.458Z,1021.98
2016-12-07T05:34:34.956Z,1022.01
2016-12-07T05:35:34.909Z,1022.02
2016-12-07T05:36:34.644Z,1021.99
2016-12-07T05:37:34.858Z,1022.01
2016-12-07T05:38:34.541Z,1022
2016-12-07T05:39:35.163Z,1022
2016-12-07T05:40:34.731Z,1022.02
2016-12-07T05:41:34.689Z,1021.98
2016-12-07T05:42:34.754Z,1021.99
2016-12-07T05:43:34.741Z,1021.99
2016-12-07T05:44:34.805Z,1021.98
2016-12-07T05:45:34.714Z,1021.91
2016-12-07T05:46:34.757Z,1021.97
2016-12-07T05:47:34.754Z,1021.92
2016-12-07T05:48:34.826Z,1021.92
2016-12-07T05:49:35.106Z,1021.95
2016-12-07T05:50:34.930Z,1021.99
2016-12-07T05:51:35.065Z,1021.99
2016-12-07T05:52:34.936Z,1022.01
2016-12-07T05:53:34.863Z,1022
2016-12-07T05:54:35.091Z,1022.03
2016-12-07T05:55:35.076Z,1021.96
2016-12-07T05:56:34.658Z,1021.99
2016-12-07T05:57:35.126Z,1021.98
2016-12-07T05:58:35.641Z,1021.91
2016-12-07T05:59:35.012Z,1021.97
2016-12-07T06:00:34.906Z,1021.94
2016-12-07T06:01:35.259Z,1021.93
2016-12-07T06:02:34.827Z,1021.94
2016-12-07T06:03:35.091Z,1021.95
2016-12-07T06:04:35.324Z,1022
2016-12-07T06:05:35.061Z,1021.91
2016-12-07T06:06:34.839Z,1021.95
2016-12-07T06:07:34.954Z,1021.9
2016-12-07T06:08:35.637Z,1021.88
2016-12-07T06:09:35.128Z,1021.85
2016-12-07T06:10:35.181Z,1021.81
2016-12-07T06:11:35.008Z,1021.86
2016-12-07T06:12:35.546Z,1021.85
2016-12-07T06:13:35.195Z,1021.77
2016-12-07T06:14:35.174Z,1021.79
2016-12-07T06:15:34.882Z,1021.78
2016-12-07T06:16:35.065Z,1021.75
2016-12-07T06:17:35.116Z,1021.73
2016-12-07T06:18:35.590Z,1021.66
2016-12-07T06:19:35.625Z,1021.69
2016-12-07T06:20:35.053Z,1021.7
2016-12-07T06:21:35.019Z,1021.73
2016-12-07T06:22:35.262Z,1021.72
2016-12-07T06:23:35.067Z,1021.68
2016-12-07T06:24:35.190Z,1021.73
2016-12-07T06:25:35.456Z,1021.78
2016-12-07T06:26:35.098Z,1021.8
2016-12-07T06:27:35.036Z,1021.82
2016-12-07T06:28:35.392Z,1021.81
2016-12-07T06:29:35.414Z,1021.74
2016-12-07T06:30:35.212Z,1021.76
2016-12-07T06:31:35.258Z,1021.77
2016-12-07T06:32:35.274Z,1021.72
2016-12-07T06:33:35.212Z,1021.72
2016-12-07T06:34:35.292Z,1021.74
2016-12-07T06:35:35.206Z,1021.77
2016-12-07T06:36:35.233Z,1021.79
2016-12-07T06:37:35.438Z,1021.81
2016-12-07T06:38:35.280Z,1021.79
2016-12-07T06:39:35.222Z,1021.77
2016-12-07T06:40:35.364Z,1021.78
2016-12-07T06:41:35.371Z,1021.79
2016-12-07T06:42:35.552Z,1021.82
2016-12-07T06:43:35.348Z,1021.84
2016-12-07T06:44:35.855Z,1021.83
2016-12-07T06:45:35.622Z,1021.85
2016-12-07T06:46:35.342Z,1021.88
2016-12-07T06:47:35.414Z,1021.9
2016-12-07T06:48:35.980Z,1021.95
2016-12-07T06:49:35.297Z,1021.97
2016-12-07T06:50:35.382Z,1021.97
2016-12-07T06:51:35.562Z,1022
2016-12-07T06:52:35.426Z,1021.99
2016-12-07T06:53:35.931Z,1021.94
2016-12-07T06:54:35.418Z,1022.02
2016-12-07T06:55:35.430Z,1022.06
2016-12-07T06:56:35.533Z,1022.07
2016-12-07T06:57:35.752Z,1022.09
2016-12-07T06:58:35.859Z,1022.08
2016-12-07T06:59:35.409Z,1022.05
2016-12-07T07:00:37.257Z,1022.11
2016-12-07T07:01:35.534Z,1022.09
2016-12-07T07:02:35.499Z,1022.07
2016-12-07T07:03:35.576Z,1022.06
2016-12-07T07:04:35.449Z,1022.06
2016-12-07T07:05:35.679Z,1022
2016-12-07T07:06:35.643Z,1022.07
2016-12-07T07:07:35.550Z,1022.05
2016-12-07T07:08:35.463Z,1022.02
2016-12-07T07:09:35.866Z,1022.05
2016-12-07T07:10:35.907Z,1022.03
2016-12-07T07:11:36.182Z,1022.04
2016-12-07T07:12:35.666Z,1022.04
2016-12-07T07:13:35.744Z,1022.07
2016-12-07T07:14:35.619Z,1022.07
2016-12-07T07:15:36.000Z,1022.07
2016-12-07T07:16:35.793Z,1022.05
2016-12-07T07:17:35.609Z,1022.05
2016-12-07T07:18:35.547Z,1022.07
2016-12-07T07:19:35.736Z,1022.07
2016-12-07T07:20:35.907Z,1022.1
2016-12-07T07:21:35.874Z,1022.16
2016-12-07T07:22:35.673Z,1022.13
2016-12-07T07:23:36.285Z,1022.16
2016-12-07T07:24:35.642Z,1022.14
2016-12-07T07:25:35.927Z,1022.13
2016-12-07T07:26:35.819Z,1022.13
2016-12-07T07:27:35.792Z,1022.09
2016-12-07T07:28:36.006Z,1022.07
2016-12-07T07:29:35.872Z,1022.11
2016-12-07T07:30:35.920Z,1022.13
2016-12-07T07:31:36.003Z,1022.13
2016-12-07T07:32:35.808Z,1022.12
2016-12-07T07:33:36.050Z,1022.1
2016-12-07T07:34:35.809Z,1022.14
2016-12-07T07:35:35.939Z,1022.19
2016-12-07T07:36:36.046Z,1022.23
2016-12-07T07:37:36.054Z,1022.23
2016-12-07T07:38:36.137Z,1022.21
2016-12-07T07:39:35.948Z,1022.2
2016-12-07T07:40:36.158Z,1022.23
2016-12-07T07:41:35.923Z,1022.2
2016-12-07T07:42:36.113Z,1022.25
2016-12-07T07:43:35.939Z,1022.22
2016-12-07T07:44:35.960Z,1022.2
2016-12-07T07:45:36.330Z,1022.17
2016-12-07T07:46:36.089Z,1022.13
2016-12-07T07:47:35.918Z,1022.12
2016-12-07T07:48:36.207Z,1022.19
2016-12-07T07:49:36.732Z,1022.24
2016-12-07T07:50:36.065Z,1022.21
2016-12-07T07:51:35.994Z,1022.23
2016-12-07T07:52:36.136Z,1022.23
2016-12-07T07:53:36.167Z,1022.14
2016-12-07T07:54:36.165Z,1022.15
2016-12-07T07:55:36.179Z,1022.16
2016-12-07T07:56:36.626Z,1022.15
2016-12-07T07:57:36.497Z,1022.17
2016-12-07T07:58:36.215Z,1022.12
2016-12-07T07:59:36.296Z,1022.14
2016-12-07T08:00:36.161Z,1022.09
2016-12-07T08:01:36.196Z,1022.13
2016-12-07T08:02:36.332Z,1022.13
2016-12-07T08:03:36.279Z,1022.15
2016-12-07T08:04:36.623Z,1022.08
2016-12-07T08:05:36.379Z,1022.07
2016-12-07T08:06:36.434Z,1022.05
2016-12-07T08:07:36.233Z,1022.09
2016-12-07T08:08:36.177Z,1022.12
2016-12-07T08:09:36.147Z,1022.1
2016-12-07T08:10:36.210Z,1022.15
2016-12-07T08:11:36.355Z,1022.13
2016-12-07T08:12:36.208Z,1022.15
2016-12-07T08:13:36.180Z,1022.16
2016-12-07T08:14:36.961Z,1022.14
2016-12-07T08:15:36.546Z,1022.11
2016-12-07T08:16:36.467Z,1022.07
2016-12-07T08:17:36.497Z,1022.09
2016-12-07T08:18:36.736Z,1022.11
2016-12-07T08:19:36.467Z,1022.13
2016-12-07T08:20:36.608Z,1022.12
2016-12-07T08:21:36.466Z,1022.13
2016-12-07T08:22:36.507Z,1022.13
2016-12-07T08:23:36.373Z,1022.18
2016-12-07T08:24:36.832Z,1022.1
2016-12-07T08:25:36.597Z,1022.11
2016-12-07T08:26:36.517Z,1022.1
2016-12-07T08:27:36.707Z,1022.08
2016-12-07T08:28:36.789Z,1022.06
2016-12-07T08:29:36.807Z,1022.09
2016-12-07T08:30:36.731Z,1022.07
2016-12-07T08:31:36.820Z,1022.1
2016-12-07T08:32:36.465Z,1022.05
2016-12-07T08:33:36.497Z,1022.08
2016-12-07T08:34:36.533Z,1022.08
2016-12-07T08:35:36.808Z,1022.09
2016-12-07T08:36:36.649Z,1022.12
2016-12-07T08:37:36.733Z,1022.13
2016-12-07T08:38:36.521Z,1022.12
2016-12-07T08:39:36.561Z,1022.15
2016-12-07T08:40:36.639Z,1022.14
2016-12-07T08:41:36.793Z,1022.16
2016-12-07T08:42:36.536Z,1022.18
2016-12-07T08:43:36.583Z,1022.19
2016-12-07T08:44:36.483Z,1022.24
2016-12-07T08:45:36.708Z,1022.22
2016-12-07T08:46:36.568Z,1022.17
2016-12-07T08:47:36.636Z,1022.14
2016-12-07T08:48:36.817Z,1022.15
2016-12-07T08:49:36.692Z,1022.19
2016-12-07T08:50:36.755Z,1022.14
2016-12-07T08:51:36.666Z,1022.16
2016-12-07T08:52:36.753Z,1022.19
2016-12-07T08:53:36.710Z,1022.18
2016-12-07T08:54:36.768Z,1022.17
2016-12-07T08:55:36.640Z,1022.2
2016-12-07T08:56:36.716Z,1022.23
2016-12-07T08:57:36.729Z,1022.26
2016-12-07T08:58:36.814Z,1022.25
2016-12-07T08:59:36.859Z,1022.3
2016-12-07T09:00:36.936Z,1022.3
2016-12-07T09:01:36.958Z,1022.32
2016-12-07T09:02:36.692Z,1022.35
2016-12-07T09:03:36.766Z,1022.39
2016-12-07T09:04:36.733Z,1022.33
2016-12-07T09:05:37.131Z,1022.32
2016-12-07T09:06:37.046Z,1022.38
2016-12-07T09:07:36.996Z,1022.38
2016-12-07T09:08:36.987Z,1022.38
2016-12-07T09:09:36.955Z,1022.46
2016-12-07T09:10:36.883Z,1022.48
2016-12-07T09:11:37.003Z,1022.45
2016-12-07T09:12:36.984Z,1022.46
2016-12-07T09:13:36.943Z,1022.43
2016-12-07T09:14:36.986Z,1022.43
2016-12-07T09:15:36.985Z,1022.5
2016-12-07T09:16:37.423Z,1022.49
2016-12-07T09:17:37.029Z,1022.57
2016-12-07T09:18:37.215Z,1022.54
2016-12-07T09:19:37.075Z,1022.6
2016-12-07T09:20:36.961Z,1022.59
2016-12-07T09:21:37.151Z,1022.61
2016-12-07T09:22:36.971Z,1022.59
2016-12-07T09:23:36.991Z,1022.61
2016-12-07T09:24:37.018Z,1022.59
2016-12-07T09:25:37.032Z,1022.66
2016-12-07T09:26:37.001Z,1022.61
2016-12-07T09:27:37.097Z,1022.7
2016-12-07T09:28:37.111Z,1022.66
2016-12-07T09:29:37.358Z,1022.65
2016-12-07T09:30:37.090Z,1022.68
2016-12-07T09:31:37.380Z,1022.65
2016-12-07T09:32:37.060Z,1022.64
2016-12-07T09:33:37.094Z,1022.64
2016-12-07T09:34:37.192Z,1022.63
2016-12-07T09:35:37.405Z,1022.64
2016-12-07T09:36:37.309Z,1022.63
2016-12-07T09:37:37.211Z,1022.65
2016-12-07T09:38:37.274Z,1022.66
2016-12-07T09:39:37.072Z,1022.64
2016-12-07T09:40:37.191Z,1022.62
2016-12-07T09:41:37.295Z,1022.57
2016-12-07T09:42:37.264Z,1022.57
2016-12-07T09:43:37.170Z,1022.57
2016-12-07T09:44:37.579Z,1022.56
2016-12-07T09:45:37.310Z,1022.56
2016-12-07T09:46:37.345Z,1022.58
2016-12-07T09:47:37.227Z,1022.54
2016-12-07T09:48:37.294Z,1022.52
2016-12-07T09:49:37.221Z,1022.57
2016-12-07T09:50:37.310Z,1022.56
2016-12-07T09:51:37.475Z,1022.56
2016-12-07T09:52:37.308Z,1022.55
2016-12-07T09:53:37.388Z,1022.54
2016-12-07T09:54:37.372Z,1022.51
2016-12-07T09:55:37.388Z,1022.51
2016-12-07T09:56:37.615Z,1022.5
2016-12-07T09:57:37.411Z,1022.46
2016-12-07T09:58:37.613Z,1022.48
2016-12-07T09:59:37.387Z,1022.44
2016-12-07T10:00:37.758Z,1022.46
2016-12-07T10:01:37.692Z,1022.44
2016-12-07T10:02:37.584Z,1022.41
2016-12-07T10:03:37.572Z,1022.37
2016-12-07T10:04:37.524Z,1022.47
2016-12-07T10:05:37.493Z,1022.38
2016-12-07T10:06:37.781Z,1022.38
2016-12-07T10:07:37.759Z,1022.36
2016-12-07T10:08:37.538Z,1022.35
2016-12-07T10:09:37.464Z,1022.39
2016-12-07T10:10:37.542Z,1022.36
2016-12-07T10:11:37.846Z,1022.38
2016-12-07T10:12:37.730Z,1022.32
2016-12-07T10:13:37.534Z,1022.34
2016-12-07T10:14:37.509Z,1022.28
2016-12-07T10:15:37.905Z,1022.23
2016-12-07T10:16:37.698Z,1022.26
2016-12-07T10:17:37.653Z,1022.24
2016-12-07T10:18:37.608Z,1022.25
2016-12-07T10:19:37.661Z,1022.24
2016-12-07T10:20:37.647Z,1022.21
2016-12-07T10:21:37.759Z,1022.2
2016-12-07T10:22:37.777Z,1022.16
2016-12-07T10:23:37.703Z,1022.21
2016-12-07T10:24:38.019Z,1022.17
2016-12-07T10:25:37.894Z,1022.18
2016-12-07T10:26:37.905Z,1022.17
2016-12-07T10:27:37.829Z,1022.13
2016-12-07T10:28:37.773Z,1022.12
2016-12-07T10:29:37.787Z,1022.08
2016-12-07T10:30:38.094Z,1022.05
2016-12-07T10:31:37.893Z,1022.09
2016-12-07T10:32:37.821Z,1022.02
2016-12-07T10:33:37.826Z,1022.01
2016-12-07T10:34:37.824Z,1022.04
2016-12-07T10:35:37.786Z,1022.05
2016-12-07T10:36:37.932Z,1022.02
2016-12-07T10:37:37.794Z,1021.98
2016-12-07T10:38:38.008Z,1022.02
2016-12-07T10:39:38.033Z,1021.98
2016-12-07T10:40:38.002Z,1021.98
2016-12-07T10:41:38.082Z,1021.95
2016-12-07T10:42:37.953Z,1022
2016-12-07T10:43:38.101Z,1021.99
2016-12-07T10:44:37.994Z,1021.96
2016-12-07T10:45:38.153Z,1021.94
2016-12-07T10:46:38.067Z,1021.97
2016-12-07T10:47:37.919Z,1021.92
2016-12-07T10:48:37.954Z,1021.89
2016-12-07T10:49:38.064Z,1021.89
2016-12-07T10:50:38.128Z,1021.84
2016-12-07T10:51:38.193Z,1021.83
2016-12-07T10:52:38.022Z,1021.79
2016-12-07T10:53:37.985Z,1021.81
2016-12-07T10:54:38.029Z,1021.82
2016-12-07T10:55:38.025Z,1021.79
2016-12-07T10:56:38.065Z,1021.75
2016-12-07T10:57:38.114Z,1021.72
2016-12-07T10:58:38.112Z,1021.69
2016-12-07T10:59:38.164Z,1021.73
2016-12-07T11:00:38.162Z,1021.72
2016-12-07T11:01:38.169Z,1021.74
2016-12-07T11:02:38.240Z,1021.75
2016-12-07T11:03:38.143Z,1021.73
2016-12-07T11:04:38.141Z,1021.76
2016-12-07T11:05:38.305Z,1021.84
2016-12-07T11:06:38.523Z,1021.85
2016-12-07T11:07:38.361Z,1021.9
2016-12-07T11:08:38.402Z,1021.86
2016-12-07T11:09:38.296Z,1021.91
2016-12-07T11:10:38.514Z,1021.89
2016-12-07T11:11:38.382Z,1021.85
2016-12-07T11:12:38.261Z,1021.82
2016-12-07T11:13:38.309Z,1021.86
2016-12-07T11:14:38.362Z,1021.86
2016-12-07T11:15:38.341Z,1021.86
2016-12-07T11:16:38.436Z,1021.8
2016-12-07T11:17:38.319Z,1021.82
2016-12-07T11:18:38.581Z,1021.79
2016-12-07T11:19:38.276Z,1021.82
2016-12-07T11:20:38.403Z,1021.77
2016-12-07T11:21:38.526Z,1021.8
2016-12-07T11:22:38.341Z,1021.84
2016-12-07T11:23:38.463Z,1021.84
2016-12-07T11:24:38.759Z,1021.79
2016-12-07T11:25:38.562Z,1021.77
2016-12-07T11:26:38.596Z,1021.77
2016-12-07T11:27:38.902Z,1021.68
2016-12-07T11:28:38.788Z,1021.71
2016-12-07T11:29:38.460Z,1021.71
2016-12-07T11:30:38.536Z,1021.69
2016-12-07T11:31:38.840Z,1021.71
2016-12-07T11:32:38.559Z,1021.72
2016-12-07T11:33:38.755Z,1021.76
2016-12-07T11:34:38.662Z,1021.71
2016-12-07T11:35:38.828Z,1021.71
2016-12-07T11:36:38.626Z,1021.7
2016-12-07T11:37:38.611Z,1021.61
2016-12-07T11:38:38.898Z,1021.66
2016-12-07T11:39:38.542Z,1021.61
2016-12-07T11:40:38.607Z,1021.6
2016-12-07T11:41:38.667Z,1021.61
2016-12-07T11:42:39.076Z,1021.57
2016-12-07T11:43:38.837Z,1021.51
2016-12-07T11:44:38.574Z,1021.58
2016-12-07T11:45:38.622Z,1021.59
2016-12-07T11:46:38.961Z,1021.55
2016-12-07T11:47:38.627Z,1021.56
2016-12-07T11:48:39.056Z,1021.61
2016-12-07T11:49:38.827Z,1021.51
2016-12-07T11:50:38.885Z,1021.47
2016-12-07T11:51:38.992Z,1021.47
2016-12-07T11:52:38.802Z,1021.43
2016-12-07T11:53:38.934Z,1021.41
2016-12-07T11:54:38.839Z,1021.35
2016-12-07T11:55:38.915Z,1021.33
2016-12-07T11:56:39.101Z,1021.32
2016-12-07T11:57:38.923Z,1021.3
2016-12-07T11:58:38.963Z,1021.31
2016-12-07T11:59:38.991Z,1021.27
2016-12-07T12:00:38.985Z,1021.28
2016-12-07T12:01:39.100Z,1021.31
2016-12-07T12:02:39.067Z,1021.32
2016-12-07T12:03:39.095Z,1021.3
2016-12-07T12:04:38.915Z,1021.29
2016-12-07T12:05:38.948Z,1021.29
2016-12-07T12:06:39.067Z,1021.2
2016-12-07T12:07:39.173Z,1021.17
2016-12-07T12:08:39.001Z,1021.2
2016-12-07T12:09:38.924Z,1021.21